createdAt,value
2018-02-04T01:02:16.734Z,71.70
2018-02-04T01:04:50.549Z,71.40
2018-02-04T01:07:32.654Z,72.20
2018-02-04T01:20:40.084Z,70.30
2018-02-04T01:26:07.329Z,69.80
2018-02-04T01:28:53.404Z,69.80
2018-02-04T01:31:43.042Z,70.00
2018-02-04T01:34:16.864Z,69.70
2018-02-04T01:36:49.277Z,70.30
2018-02-04T01:39:23.681Z,69.00
2018-02-04T01:44:38.983Z,68.50
2018-02-04T01:50:10.240Z,68.40
2018-02-04T01:52:44.460Z,68.00
2018-02-04T01:55:21.195Z,67.30
2018-02-04T01:58:12.644Z,68.00
2018-02-04T02:00:52.780Z,68.10
2018-02-04T02:23:51.763Z,67.80
2018-02-04T02:26:31.208Z,65.50
2018-02-04T02:29:11.775Z,65.50
2018-02-04T02:31:51.699Z,64.60
2018-02-04T02:34:28.020Z,65.20
2018-02-04T02:37:06.732Z,64.70
2018-02-04T02:40:11.875Z,64.70
2018-02-04T02:42:45.060Z,64.30
2018-02-04T02:45:29.734Z,64.30
2018-02-04T02:54:18.126Z,63.90
2018-02-04T02:56:58.554Z,63.10
2018-02-04T02:59:39.179Z,63.10
2018-02-04T03:02:15.545Z,63.40
2018-02-04T03:04:49.001Z,63.00
2018-02-04T03:07:25.642Z,62.90
2018-02-04T03:12:45.138Z,62.80
2018-02-04T03:18:22.871Z,63.70
2018-02-04T03:20:57.231Z,62.80
2018-02-04T03:23:34.617Z,63.50
2018-02-04T03:26:05.972Z,63.80
2018-02-04T03:28:42.901Z,64.30
2018-02-04T03:31:15.091Z,62.70
2018-02-04T03:33:49.336Z,63.10
2018-02-04T03:45:02.914Z,63.30
2018-02-04T03:47:33.123Z,61.60
2018-02-04T03:50:19.930Z,61.60
2018-02-04T03:52:53.912Z,62.10
2018-02-04T03:55:28.783Z,61.20
2018-02-04T03:58:01.715Z,60.80
2018-02-04T04:00:38.315Z,61.20
2018-02-04T04:03:22.153Z,60.80
2018-02-04T04:05:59.252Z,60.30
2018-02-04T04:08:35.543Z,59.90
2018-02-04T04:11:07.807Z,59.70
2018-02-04T04:13:41.095Z,59.60
2018-02-04T04:16:18.644Z,59.30
2018-02-04T04:18:50.374Z,58.30
2018-02-04T04:21:38.869Z,58.80
2018-02-04T04:24:11.576Z,57.20
2018-02-04T04:26:46.977Z,56.00
2018-02-04T04:29:19.783Z,55.70
2018-02-04T04:31:57.703Z,56.30
2018-02-04T04:37:11.848Z,55.80
2018-02-04T04:39:48.534Z,55.00
2018-02-04T04:42:26.228Z,55.00
2018-02-04T04:45:01.450Z,54.80
2018-02-04T04:47:36.973Z,54.80
2018-02-04T04:50:16.815Z,55.30
2018-02-04T04:55:57.656Z,55.40
2018-02-04T04:58:39.666Z,55.30
2018-02-04T05:03:54.040Z,55.80
2018-02-04T05:06:33.910Z,56.10
2018-02-04T05:14:57.464Z,55.30
2018-02-04T05:17:32.073Z,55.30
2018-02-04T05:20:05.171Z,55.00
2018-02-04T05:22:42.873Z,56.00
2018-02-04T05:25:17.970Z,56.00
2018-02-04T05:27:50.739Z,55.00
2018-02-04T05:30:23.321Z,55.10
2018-02-04T05:33:00.946Z,55.40
2018-02-04T05:38:15.815Z,55.70
2018-02-04T05:40:48.292Z,56.00
2018-02-04T05:43:25.910Z,56.30
2018-02-04T05:46:07.858Z,55.70
2018-02-04T05:48:43.864Z,55.90
2018-02-04T05:51:21.809Z,55.90
2018-02-04T06:19:19.716Z,58.40
2018-02-04T06:21:57.558Z,58.30
2018-02-04T06:24:37.216Z,59.00
2018-02-04T06:27:16.986Z,58.80
2018-02-04T06:30:00.820Z,58.70
2018-02-04T06:32:35.238Z,58.50
2018-02-04T06:35:10.584Z,59.30
2018-02-04T06:37:57.311Z,59.00
2018-02-04T06:40:37.533Z,59.60
2018-02-04T06:46:03.854Z,59.40
2018-02-04T06:48:45.649Z,59.60
2018-02-04T06:51:30.942Z,59.60
2018-02-04T06:57:07.426Z,60.00
2018-02-04T07:05:48.724Z,60.70
2018-02-04T07:20:46.202Z,60.90
2018-02-04T07:42:19.560Z,61.00
2018-02-04T09:09:15.335Z,61.30
2018-02-04T18:18:05.134Z,73.40
2018-02-04T18:20:58.196Z,73.60
2018-02-04T18:24:38.946Z,74.10
2018-02-04T18:40:44.730Z,74.50
2018-02-04T18:46:30.519Z,74.10
2018-02-04T18:55:29.305Z,99.90
2018-02-04T20:45:27.920Z,76.60
